createdAt,value
2018-04-08T00:00:23.722Z,100341.41
2018-04-08T00:05:18.071Z,100338.31
2018-04-08T00:10:12.632Z,100337.84
2018-04-08T00:15:07.001Z,100334.95
2018-04-08T00:20:02.459Z,100334.22
2018-04-08T00:24:56.825Z,100329.55
2018-04-08T00:29:51.968Z,100326.02
2018-04-08T00:34:46.343Z,100326.55
2018-04-08T00:39:41.488Z,100316.31
2018-04-08T00:44:36.016Z,100313.17
2018-04-08T00:49:30.128Z,100301.44
2018-04-08T00:54:31.698Z,100304.78
2018-04-08T00:59:26.051Z,100309.59
2018-04-08T01:04:21.183Z,100302.33
2018-04-08T01:09:15.732Z,100306.35
2018-04-08T01:14:10.116Z,100305.31
2018-04-08T01:19:04.544Z,100306.80
2018-04-08T01:23:58.922Z,100298.08
2018-04-08T01:28:53.293Z,100297.82
2018-04-08T01:33:48.460Z,100301.12
2018-04-08T01:38:42.839Z,100299.53
2018-04-08T01:43:37.190Z,100300.04
2018-04-08T01:48:31.572Z,100300.98
2018-04-08T01:53:25.920Z,100300.44
2018-04-08T01:58:21.041Z,100300.64
2018-04-08T02:03:16.179Z,100293.90
2018-04-08T02:08:10.534Z,100288.17
2018-04-08T02:13:04.898Z,100291.97
2018-04-08T02:17:59.258Z,100291.23
2018-04-08T02:22:54.386Z,100289.68
2018-04-08T02:27:48.666Z,100292.16
2018-04-08T02:32:43.841Z,100283.39
2018-04-08T02:37:38.359Z,100281.89
2018-04-08T02:42:32.723Z,100276.97
2018-04-08T02:47:27.104Z,100275.73
2018-04-08T02:52:22.245Z,100281.45
2018-04-08T02:57:16.373Z,100277.19
2018-04-08T03:02:11.104Z,100272.89
2018-04-08T03:07:05.478Z,100276.11
2018-04-08T03:11:59.828Z,100264.98
2018-04-08T03:16:54.190Z,100265.16
2018-04-08T03:21:48.565Z,100263.75
2018-04-08T03:26:43.693Z,100267.27
2018-04-08T03:31:37.807Z,100261.03
2018-04-08T03:36:32.249Z,100255.86
2018-04-08T03:41:26.614Z,100258.34
2018-04-08T03:46:20.986Z,100252.23
2018-04-08T03:51:15.343Z,100250.80
2018-04-08T03:56:09.707Z,100248.77
2018-04-08T04:01:03.836Z,100241.80
2018-04-08T04:05:58.111Z,100242.06
2018-04-08T04:10:52.420Z,100239.18
2018-04-08T04:15:46.544Z,100238.66
2018-04-08T04:20:57.973Z,100239.52
2018-04-08T04:26:10.784Z,100239.70
2018-04-08T04:31:04.896Z,100237.80
2018-04-08T04:35:59.646Z,100244.77
2018-04-08T04:40:53.998Z,100245.97
2018-04-08T04:45:48.363Z,100246.52
2018-04-08T04:50:42.957Z,100252.39
2018-04-08T04:55:37.103Z,100242.45
2018-04-08T05:00:31.283Z,100241.56
2018-04-08T05:05:25.702Z,100244.33
2018-04-08T05:10:20.071Z,100248.34
2018-04-08T05:15:14.445Z,100245.99
2018-04-08T05:20:08.820Z,100235.32
2018-04-08T05:25:03.206Z,100241.23
2018-04-08T05:29:57.597Z,100254.73
2018-04-08T05:34:51.960Z,100258.45
2018-04-08T05:39:46.335Z,100261.26
2018-04-08T05:44:40.707Z,100277.53
2018-04-08T05:49:34.849Z,100278.98
2018-04-08T05:54:30.007Z,100284.95
2018-04-08T05:59:24.439Z,100277.13
2018-04-08T06:04:18.577Z,100286.96
2018-04-08T06:09:12.944Z,100282.09
2018-04-08T06:14:07.315Z,100272.88
2018-04-08T06:19:01.665Z,100261.46
2018-04-08T06:23:56.017Z,100269.34
2018-04-08T06:28:50.392Z,100276.86
2018-04-08T06:33:44.762Z,100269.94
2018-04-08T06:38:38.886Z,100270.89
2018-04-08T06:43:33.179Z,100272.83
2018-04-08T06:48:27.811Z,100263.00
2018-04-08T06:53:22.185Z,100260.89
2018-04-08T06:58:17.332Z,100255.25
2018-04-08T07:03:12.842Z,100256.93
2018-04-08T07:08:08.105Z,100270.64
2018-04-08T07:13:02.468Z,100257.81
2018-04-08T07:17:57.369Z,100256.18
2018-04-08T07:22:51.738Z,100252.88
2018-04-08T07:27:46.096Z,100250.30
2018-04-08T07:32:41.274Z,100247.59
2018-04-08T07:37:37.598Z,100254.22
2018-04-08T07:42:31.971Z,100258.23
2018-04-08T07:47:27.294Z,100265.78
2018-04-08T07:52:21.744Z,100269.06
2018-04-08T07:57:16.135Z,100270.86
2018-04-08T08:02:10.798Z,100266.66
2018-04-08T08:07:05.943Z,100270.23
2018-04-08T08:12:01.118Z,100262.98
2018-04-08T08:16:55.476Z,100265.08
2018-04-08T08:21:50.486Z,100272.44
2018-04-08T08:26:45.447Z,100277.87
2018-04-08T08:31:40.236Z,100278.34
2018-04-08T08:36:34.782Z,100279.78
2018-04-08T08:41:29.186Z,100278.38
2018-04-08T08:46:23.564Z,100271.58
2018-04-08T08:51:17.998Z,100274.94
2018-04-08T08:56:12.566Z,100280.16
2018-04-08T09:01:06.942Z,100283.30
2018-04-08T09:06:04.619Z,100270.61
2018-04-08T09:10:58.620Z,100264.38
2018-04-08T09:15:53.540Z,100274.64
2018-04-08T09:20:54.066Z,100266.84
2018-04-08T09:25:58.317Z,100264.58
2018-04-08T09:30:53.482Z,100258.81
2018-04-08T09:35:47.855Z,100257.00
2018-04-08T09:40:42.986Z,100266.00
2018-04-08T09:45:37.455Z,100246.22
2018-04-08T09:50:31.988Z,100247.42
2018-04-08T09:55:26.165Z,100235.11
2018-04-08T10:16:12.107Z,100233.75
2018-04-08T10:21:06.263Z,100226.36
2018-04-08T10:26:00.643Z,100215.84
2018-04-08T10:30:55.018Z,100220.80
2018-04-08T10:35:49.379Z,100215.59
2018-04-08T10:40:43.751Z,100211.02
2018-04-08T10:45:38.113Z,100207.67
2018-04-08T10:50:32.494Z,100202.08
2018-04-08T10:55:27.098Z,100195.77
2018-04-08T11:00:22.281Z,100188.73
2018-04-08T11:05:16.657Z,100186.84
2018-04-08T11:10:11.030Z,100171.18
2018-04-08T11:15:05.578Z,100169.44
2018-04-08T11:19:59.937Z,100158.58
2018-04-08T11:24:54.389Z,100158.95
2018-04-08T11:29:48.833Z,100165.50
2018-04-08T11:34:43.411Z,100157.89
2018-04-08T11:39:37.635Z,100158.66
2018-04-08T11:44:32.030Z,100152.58
2018-04-08T11:49:26.162Z,100139.08
2018-04-08T11:54:21.294Z,100141.27
2018-04-08T11:59:15.476Z,100135.25
2018-04-08T12:04:10.474Z,100135.48
2018-04-08T12:09:04.130Z,100132.88
2018-04-08T12:13:58.491Z,100128.80
2018-04-08T12:18:53.528Z,100127.02
2018-04-08T12:23:47.665Z,100116.42
2018-04-08T12:28:41.805Z,100106.46
2018-04-08T12:33:35.952Z,100095.14
2018-04-08T12:38:30.326Z,100102.89
2018-04-08T12:43:24.699Z,100097.15
2018-04-08T12:48:23.443Z,100090.88
2018-04-08T12:53:17.629Z,100094.47
2018-04-08T12:58:12.196Z,100084.95
2018-04-08T13:03:06.349Z,100081.23
2018-04-08T13:08:00.714Z,100068.46
2018-04-08T13:12:55.632Z,100058.20
2018-04-08T13:17:50.533Z,100055.44
2018-04-08T13:22:44.912Z,100055.08
2018-04-08T13:27:40.183Z,100040.75
2018-04-08T13:32:35.328Z,100034.30
2018-04-08T13:37:31.585Z,100031.44
2018-04-08T13:42:25.936Z,100029.55
2018-04-08T13:47:21.085Z,100025.69
2018-04-08T13:52:15.463Z,100021.44
2018-04-08T13:57:10.795Z,100017.89
2018-04-08T14:02:06.038Z,100016.47
2018-04-08T14:07:00.417Z,100008.58
2018-04-08T14:11:54.900Z,100007.44
2018-04-08T14:16:49.264Z,100003.23
2018-04-08T14:21:43.665Z,99996.74
2018-04-08T14:26:38.026Z,99992.34
2018-04-08T14:31:33.843Z,99980.91
2018-04-08T14:36:27.996Z,99979.38
2018-04-08T14:41:22.636Z,99972.73
2018-04-08T14:46:17.184Z,99975.75
2018-04-08T14:51:12.088Z,99972.63
2018-04-08T14:56:07.242Z,99970.03
2018-04-08T15:01:02.211Z,99960.31
2018-04-08T15:05:56.900Z,99957.89
2018-04-08T15:10:51.285Z,99964.56
2018-04-08T15:15:45.434Z,99966.43
2018-04-08T15:20:40.368Z,99957.30
2018-04-08T15:25:35.339Z,99958.48
2018-04-08T15:30:31.047Z,99956.21
2018-04-08T15:35:26.454Z,99955.84
2018-04-08T15:40:20.997Z,99950.09
2018-04-08T15:45:15.570Z,99947.78
2018-04-08T15:50:10.010Z,99952.16
2018-04-08T15:55:04.374Z,99947.09
2018-04-08T15:59:58.880Z,99946.91
2018-04-08T16:04:53.141Z,99949.13
2018-04-08T16:09:47.527Z,99949.80
2018-04-08T16:14:41.873Z,99949.94
2018-04-08T16:19:36.232Z,99951.29
2018-04-08T16:24:30.745Z,99954.72
2018-04-08T16:29:25.097Z,99945.16
2018-04-08T16:34:19.282Z,99945.87
2018-04-08T16:39:14.418Z,99944.86
2018-04-08T16:44:08.832Z,99948.67
2018-04-08T16:49:03.264Z,99950.70
2018-04-08T16:54:01.979Z,99954.20
2018-04-08T16:58:56.283Z,99949.57
2018-04-08T17:03:54.178Z,99951.98
2018-04-08T17:08:48.532Z,99960.09
2018-04-08T17:13:43.070Z,99959.56
2018-04-08T17:18:37.620Z,99959.38
2018-04-08T17:23:31.750Z,99963.31
2018-04-08T17:28:25.875Z,99970.48
2018-04-08T17:33:20.153Z,99969.02
2018-04-08T17:38:14.728Z,99962.86
2018-04-08T17:43:08.875Z,99971.24
2018-04-08T17:48:03.024Z,99977.03
2018-04-08T17:52:57.173Z,99970.77
2018-04-08T17:57:51.551Z,99970.27
2018-04-08T18:02:46.072Z,99977.23
2018-04-08T18:07:40.454Z,99978.61
2018-04-08T18:12:34.566Z,99977.22
2018-04-08T18:17:28.949Z,99979.94
2018-04-08T18:22:24.394Z,99983.91
2018-04-08T18:27:18.779Z,99986.23
2018-04-08T18:32:13.142Z,99995.44
2018-04-08T18:37:08.413Z,99997.33
2018-04-08T18:42:02.831Z,100002.45
2018-04-08T18:46:57.224Z,100006.17
2018-04-08T18:51:51.758Z,100011.52
2018-04-08T18:56:46.135Z,100011.06
2018-04-08T19:01:40.543Z,100020.95
2018-04-08T19:06:34.923Z,100022.09
2018-04-08T19:11:29.370Z,100029.19
2018-04-08T19:16:23.988Z,100022.48
2018-04-08T19:21:19.399Z,100031.91
2018-04-08T19:26:13.763Z,100036.02
2018-04-08T19:31:08.122Z,100037.52
2018-04-08T19:36:03.264Z,100031.03
2018-04-08T19:40:57.616Z,100039.56
2018-04-08T19:45:51.998Z,100038.69
2018-04-08T19:50:46.504Z,100039.68
2018-04-08T19:55:40.852Z,100043.00
2018-04-08T20:00:35.147Z,100040.29
2018-04-08T20:05:29.508Z,100032.64
2018-04-08T20:10:23.946Z,100033.47
2018-04-08T20:15:18.376Z,100028.42
2018-04-08T20:20:13.270Z,100022.95
2018-04-08T20:25:07.632Z,100023.00
2018-04-08T20:30:02.104Z,100016.58
2018-04-08T20:34:56.669Z,100018.06
2018-04-08T20:39:50.806Z,100013.81
2018-04-08T20:44:46.429Z,100025.98
2018-04-08T20:49:48.727Z,100017.66
2018-04-08T20:54:43.909Z,100019.30
2018-04-08T20:59:38.302Z,100017.98
2018-04-08T21:04:32.688Z,100022.08
2018-04-08T21:09:27.630Z,100022.23
2018-04-08T21:14:22.411Z,100024.59
2018-04-08T21:19:16.824Z,100022.98
2018-04-08T21:24:10.959Z,100031.09
2018-04-08T21:29:05.342Z,100029.27
2018-04-08T21:33:59.486Z,100030.52
2018-04-08T21:38:54.753Z,100028.52
2018-04-08T21:43:49.394Z,100024.74
2018-04-08T21:48:44.541Z,100022.69
2018-04-08T21:53:39.694Z,100026.01
2018-04-08T21:58:34.053Z,100021.08
2018-04-08T22:03:29.421Z,100018.45
2018-04-08T22:08:23.794Z,100023.02
2018-04-08T22:13:19.374Z,100029.19
2018-04-08T22:18:14.624Z,100032.76
2018-04-08T22:23:11.189Z,100032.48
2018-04-08T22:28:06.332Z,100032.20
2018-04-08T22:33:01.694Z,100044.68
2018-04-08T22:37:56.271Z,100048.55
2018-04-08T22:42:50.768Z,100055.09
2018-04-08T22:47:45.195Z,100050.92
2018-04-08T22:52:39.908Z,100048.59
2018-04-08T22:57:34.291Z,100041.80
2018-04-08T23:02:29.466Z,100044.47
2018-04-08T23:07:24.607Z,100043.98
2018-04-08T23:12:20.031Z,100045.22
2018-04-08T23:17:15.214Z,100048.28
2018-04-08T23:22:09.777Z,100046.47
2018-04-08T23:27:04.288Z,100047.13
2018-04-08T23:31:58.406Z,100045.51
2018-04-08T23:36:53.556Z,100047.84
2018-04-08T23:41:47.958Z,100041.77
2018-04-08T23:46:42.328Z,100044.95
2018-04-08T23:51:36.706Z,100046.51
2018-04-08T23:56:31.088Z,100046.17
